createdAt,value
2022-10-23T00:01:42.838Z,80.09
2022-10-23T00:04:15.673Z,79.34
2022-10-23T00:06:43.334Z,79.71
2022-10-23T00:09:13.288Z,80.06
2022-10-23T00:11:40.323Z,80.97
2022-10-23T00:14:08.345Z,81.41
2022-10-23T00:16:34.834Z,81.54
2022-10-23T00:19:01.876Z,82.33
2022-10-23T00:21:28.602Z,82.56
2022-10-23T00:24:00.435Z,82.86
2022-10-23T00:26:27.119Z,83.28
2022-10-23T00:28:53.949Z,83.17
2022-10-23T00:31:21.481Z,83.67
2022-10-23T00:33:48.889Z,83.26
2022-10-23T00:36:18.661Z,83.74
2022-10-23T00:38:46.117Z,83.57
2022-10-23T00:41:20.457Z,83.83
2022-10-23T00:44:02.188Z,83.35
2022-10-23T00:46:28.858Z,83.54
2022-10-23T00:48:55.554Z,83.24
2022-10-23T00:51:22.057Z,82.80
2022-10-23T00:54:01.057Z,82.33
2022-10-23T00:56:38.551Z,82.26
2022-10-23T00:59:05.215Z,82.51
2022-10-23T01:01:31.811Z,82.07
2022-10-23T01:03:58.558Z,81.60
2022-10-23T01:06:43.496Z,81.83
2022-10-23T01:09:27.158Z,81.70
2022-10-23T01:11:59.830Z,82.03
2022-10-23T01:14:55.469Z,81.70
2022-10-23T01:17:27.392Z,81.87
2022-10-23T01:20:19.946Z,81.58
2022-10-23T01:23:07.703Z,82.17
2022-10-23T01:25:52.604Z,81.56
2022-10-23T01:28:27.429Z,81.66
2022-10-23T01:30:54.117Z,81.94
2022-10-23T01:33:35.944Z,83.69
2022-10-23T01:36:12.734Z,82.69
2022-10-23T01:38:51.456Z,82.48
2022-10-23T01:41:29.936Z,83.02
2022-10-23T01:43:57.005Z,81.88
2022-10-23T01:46:23.785Z,81.29
2022-10-23T01:48:54.106Z,81.26
2022-10-23T01:51:25.043Z,81.27
2022-10-23T01:53:53.016Z,81.48
2022-10-23T01:56:23.100Z,81.40
2022-10-23T01:58:53.003Z,81.75
2022-10-23T02:01:20.483Z,81.60
2022-10-23T02:03:48.127Z,80.89
2022-10-23T02:06:14.797Z,80.24
2022-10-23T02:08:41.578Z,79.92
2022-10-23T02:11:10.567Z,79.70
2022-10-23T02:14:04.965Z,80.16
2022-10-23T02:16:40.894Z,80.57
2022-10-23T02:19:19.417Z,80.53
2022-10-23T02:21:56.243Z,80.61
2022-10-23T02:24:33.588Z,79.83
2022-10-23T02:27:03.108Z,80.00
2022-10-23T02:29:40.559Z,79.00
2022-10-23T02:32:08.929Z,79.58
2022-10-23T02:34:36.127Z,79.20
2022-10-23T02:37:02.842Z,79.53
2022-10-23T02:39:29.587Z,80.17
2022-10-23T02:42:10.246Z,79.80
2022-10-23T02:44:44.319Z,79.37
2022-10-23T02:47:20.093Z,79.64
2022-10-23T02:49:55.462Z,80.41
2022-10-23T02:52:55.347Z,81.39
2022-10-23T02:55:40.091Z,82.66
2022-10-23T02:58:25.313Z,82.79
2022-10-23T03:00:55.896Z,82.38
2022-10-23T03:03:27.559Z,82.58
2022-10-23T03:05:54.235Z,82.81
2022-10-23T03:08:20.708Z,81.90
2022-10-23T03:13:19.004Z,83.02
2022-10-23T03:15:45.459Z,83.14
2022-10-23T03:18:11.950Z,84.02
2022-10-23T03:20:38.388Z,83.50
2022-10-23T03:23:05.291Z,83.22
2022-10-23T03:25:31.857Z,83.13
2022-10-23T03:27:58.366Z,82.12
2022-10-23T03:30:25.263Z,82.56
2022-10-23T03:32:51.697Z,82.43
2022-10-23T03:35:18.637Z,82.99
2022-10-23T03:37:45.410Z,82.97
2022-10-23T03:40:11.982Z,82.55
2022-10-23T03:42:39.155Z,82.82
2022-10-23T03:45:06.246Z,83.58
2022-10-23T03:47:32.720Z,84.37
2022-10-23T03:49:59.172Z,83.65
2022-10-23T03:52:25.645Z,84.65
2022-10-23T03:54:52.132Z,85.75
2022-10-23T03:57:18.672Z,85.65
2022-10-23T03:59:45.172Z,85.88
2022-10-23T04:02:11.746Z,87.51
2022-10-23T04:04:38.328Z,86.73
2022-10-23T04:07:04.769Z,86.03
2022-10-23T04:09:31.243Z,85.26
2022-10-23T04:11:57.797Z,86.55
2022-10-23T04:14:44.513Z,86.54
2022-10-23T04:17:13.202Z,85.67
2022-10-23T04:19:39.645Z,86.31
2022-10-23T04:22:06.099Z,86.58
2022-10-23T04:24:32.625Z,86.34
2022-10-23T04:26:59.084Z,86.35
2022-10-23T04:29:25.751Z,86.26
2022-10-23T04:31:54.570Z,86.59
2022-10-23T04:34:21.144Z,86.30
2022-10-23T04:36:47.585Z,85.53
2022-10-23T04:39:14.120Z,85.68
2022-10-23T04:41:40.798Z,86.59
2022-10-23T04:44:07.753Z,87.51
2022-10-23T04:46:34.254Z,87.25
2022-10-23T04:49:00.707Z,88.34
2022-10-23T04:51:27.257Z,88.25
2022-10-23T04:53:53.739Z,87.60
2022-10-23T04:56:20.211Z,87.89
2022-10-23T04:58:46.674Z,88.32
2022-10-23T05:01:13.191Z,87.34
2022-10-23T05:03:39.753Z,86.13
2022-10-23T05:06:06.431Z,86.34
2022-10-23T05:08:32.948Z,86.94
2022-10-23T05:10:59.404Z,88.31
2022-10-23T05:13:25.865Z,89.35
2022-10-23T05:15:53.298Z,88.69
2022-10-23T05:18:30.191Z,88.51
2022-10-23T05:21:02.719Z,89.90
2022-10-23T05:23:30.879Z,90.51
2022-10-23T05:25:57.375Z,90.07
2022-10-23T05:28:23.907Z,89.44
2022-10-23T05:30:50.429Z,88.30
2022-10-23T05:33:17.127Z,88.58
2022-10-23T05:35:44.473Z,88.88
2022-10-23T05:38:11.408Z,88.99
2022-10-23T05:43:09.257Z,89.91
2022-10-23T05:45:35.807Z,89.90
2022-10-23T05:48:11.014Z,89.89
2022-10-23T05:50:48.813Z,90.72
2022-10-23T05:53:15.366Z,90.62
2022-10-23T05:55:41.942Z,90.38
2022-10-23T05:58:08.674Z,90.71
2022-10-23T06:00:35.174Z,90.00
2022-10-23T06:03:02.890Z,90.65
2022-10-23T06:05:29.390Z,91.15
2022-10-23T06:07:59.337Z,91.01
2022-10-23T06:10:26.530Z,90.41
2022-10-23T06:12:53.012Z,90.55
2022-10-23T06:15:19.823Z,89.67
2022-10-23T06:17:46.446Z,89.37
2022-10-23T06:20:13.045Z,90.18
2022-10-23T06:22:39.691Z,89.92
2022-10-23T06:25:06.875Z,88.56
2022-10-23T06:27:33.337Z,90.04
2022-10-23T06:29:59.876Z,91.79
2022-10-23T06:32:26.471Z,92.32
2022-10-23T06:34:52.952Z,93.08
2022-10-23T06:37:20.188Z,92.39
2022-10-23T06:39:46.832Z,91.17
2022-10-23T06:42:13.284Z,90.32
2022-10-23T06:44:39.736Z,88.43
2022-10-23T06:47:06.324Z,88.03
2022-10-23T06:49:32.832Z,88.39
2022-10-23T06:51:59.287Z,87.45
2022-10-23T06:54:25.830Z,86.81
2022-10-23T06:56:52.344Z,85.77
2022-10-23T06:59:18.933Z,84.62
2022-10-23T07:01:45.727Z,84.85
2022-10-23T07:04:12.358Z,86.10
2022-10-23T07:06:38.908Z,85.34
2022-10-23T07:09:05.343Z,84.99
2022-10-23T07:11:31.852Z,83.93
2022-10-23T07:13:58.737Z,83.34
2022-10-23T07:16:25.435Z,82.94
2022-10-23T07:18:57.524Z,81.95
2022-10-23T07:21:25.078Z,81.66
2022-10-23T07:23:51.849Z,80.62
2022-10-23T07:26:21.878Z,80.35
2022-10-23T07:28:49.488Z,79.54
2022-10-23T07:31:16.378Z,79.07
2022-10-23T07:33:42.859Z,78.92
2022-10-23T07:36:10.094Z,78.05
2022-10-23T07:38:36.679Z,78.07
2022-10-23T07:41:03.233Z,78.12
2022-10-23T07:43:29.784Z,77.16
2022-10-23T07:45:56.411Z,76.85
2022-10-23T07:48:23.322Z,75.47
2022-10-23T07:50:50.854Z,76.22
2022-10-23T07:53:21.956Z,75.45
2022-10-23T07:55:58.863Z,74.77
2022-10-23T07:58:27.191Z,73.11
2022-10-23T08:01:01.567Z,72.56
2022-10-23T08:03:32.874Z,72.25
2022-10-23T08:06:00.093Z,72.75
2022-10-23T08:08:27.304Z,72.03
2022-10-23T08:10:55.246Z,72.14
2022-10-23T08:13:22.618Z,72.02
2022-10-23T08:15:50.574Z,71.73
2022-10-23T08:18:17.261Z,71.09
2022-10-23T08:20:45.372Z,71.45
2022-10-23T08:23:12.517Z,71.55
2022-10-23T08:25:40.206Z,71.66
2022-10-23T08:28:07.497Z,71.78
2022-10-23T08:30:34.133Z,71.97
2022-10-23T08:33:03.570Z,72.39
2022-10-23T08:35:32.406Z,72.58
2022-10-23T08:37:59.118Z,73.02
2022-10-23T08:40:26.112Z,71.76
2022-10-23T08:43:04.969Z,71.79
2022-10-23T08:45:43.064Z,71.91
2022-10-23T08:48:19.957Z,72.60
2022-10-23T08:50:50.460Z,73.14
2022-10-23T08:53:41.881Z,73.03
2022-10-23T08:56:22.789Z,73.51
2022-10-23T08:58:54.773Z,72.83
2022-10-23T09:01:25.291Z,72.61
2022-10-23T09:03:51.929Z,72.66
2022-10-23T09:06:36.740Z,72.63
2022-10-23T09:09:18.277Z,73.42
2022-10-23T09:12:10.922Z,72.18
2022-10-23T09:14:58.993Z,73.51
2022-10-23T09:17:27.858Z,73.57
2022-10-23T09:20:07.852Z,71.85
2022-10-23T09:22:34.216Z,73.03
2022-10-23T09:25:03.053Z,73.54
2022-10-23T09:27:29.502Z,72.55
2022-10-23T09:29:56.212Z,72.38
2022-10-23T09:32:36.731Z,72.59
2022-10-23T09:35:04.421Z,71.65
2022-10-23T09:37:33.043Z,70.30
2022-10-23T09:40:15.661Z,69.33
2022-10-23T09:43:14.017Z,71.25
2022-10-23T09:45:40.507Z,71.34
2022-10-23T09:48:12.922Z,70.86
2022-10-23T09:50:47.794Z,70.67
2022-10-23T09:53:22.154Z,70.90
2022-10-23T09:55:53.658Z,72.26
2022-10-23T09:58:31.705Z,73.25
2022-10-23T10:00:58.246Z,72.84
2022-10-23T10:03:25.168Z,73.03
2022-10-23T10:06:03.459Z,72.03
2022-10-23T10:08:40.496Z,71.66
2022-10-23T10:11:18.030Z,70.41
2022-10-23T10:14:09.893Z,70.95
2022-10-23T10:16:43.221Z,70.13
2022-10-23T10:19:44.550Z,69.87
2022-10-23T10:22:31.126Z,69.64
2022-10-23T10:25:13.173Z,68.59
2022-10-23T10:28:12.402Z,68.88
2022-10-23T10:30:56.448Z,68.43
2022-10-23T10:33:53.638Z,68.24
2022-10-23T10:36:41.441Z,68.11
2022-10-23T10:39:34.790Z,67.46
2022-10-23T10:42:07.140Z,68.85
2022-10-23T10:45:11.024Z,67.58
2022-10-23T10:47:54.320Z,66.60
2022-10-23T10:50:28.786Z,66.32
2022-10-23T10:53:07.536Z,66.28
2022-10-23T10:55:41.281Z,65.67
2022-10-23T10:58:31.510Z,64.44
2022-10-23T11:01:03.545Z,65.04
2022-10-23T11:03:40.078Z,64.12
2022-10-23T11:06:21.356Z,63.36
2022-10-23T11:08:57.740Z,63.15
2022-10-23T11:11:39.753Z,63.43
2022-10-23T11:14:07.498Z,64.27
2022-10-23T11:16:39.896Z,64.59
2022-10-23T11:19:15.891Z,65.90
2022-10-23T11:21:55.529Z,67.31
2022-10-23T11:24:49.444Z,67.57
2022-10-23T11:27:25.794Z,66.41
2022-10-23T11:29:55.591Z,67.15
2022-10-23T11:32:41.281Z,65.61
2022-10-23T11:35:35.041Z,64.81
2022-10-23T11:38:09.763Z,65.58
2022-10-23T11:40:36.292Z,64.33
2022-10-23T11:43:02.845Z,65.64
2022-10-23T11:45:36.614Z,65.58
2022-10-23T11:48:15.645Z,64.17
2022-10-23T11:50:44.458Z,65.32
2022-10-23T11:53:31.212Z,67.05
2022-10-23T11:56:13.141Z,66.59
2022-10-23T11:58:47.126Z,66.82
2022-10-23T12:01:30.909Z,66.54
2022-10-23T12:04:02.840Z,67.74
2022-10-23T12:06:39.942Z,66.59
2022-10-23T12:10:00.104Z,66.70
2022-10-23T12:12:37.480Z,66.77
2022-10-23T12:15:09.076Z,67.28
2022-10-23T12:17:38.124Z,66.86
2022-10-23T12:20:11.095Z,66.61
2022-10-23T12:22:50.472Z,65.33
2022-10-23T12:25:24.255Z,64.28
2022-10-23T12:28:06.037Z,63.44
2022-10-23T12:30:47.465Z,65.68
2022-10-23T12:33:19.393Z,66.82
2022-10-23T12:36:07.537Z,68.09
2022-10-23T12:38:42.701Z,69.75
2022-10-23T12:41:16.531Z,70.58
2022-10-23T12:43:45.769Z,71.14
2022-10-23T12:46:30.166Z,71.07
2022-10-23T12:48:57.857Z,71.64
2022-10-23T12:51:27.058Z,70.70
2022-10-23T12:53:53.950Z,70.92
2022-10-23T12:56:20.697Z,72.17
2022-10-23T12:58:50.002Z,73.13
2022-10-23T13:01:31.407Z,73.51
2022-10-23T13:06:49.847Z,73.18
2022-10-23T13:09:40.445Z,72.65
2022-10-23T13:12:08.490Z,72.14
2022-10-23T13:14:39.384Z,72.93
2022-10-23T13:17:11.267Z,72.47
2022-10-23T13:19:38.068Z,71.63
2022-10-23T13:22:13.932Z,71.29
2022-10-23T13:24:41.100Z,71.41
2022-10-23T13:27:32.881Z,72.75
2022-10-23T13:29:59.739Z,71.94
2022-10-23T13:32:29.277Z,71.84
2022-10-23T13:35:10.029Z,73.15
2022-10-23T13:40:23.639Z,73.08
2022-10-23T13:42:50.714Z,73.08
2022-10-23T13:45:24.674Z,73.35
2022-10-23T13:47:51.930Z,75.06
2022-10-23T13:50:18.798Z,75.42
2022-10-23T13:52:45.328Z,76.82
2022-10-23T13:55:20.352Z,75.52
2022-10-23T13:57:46.878Z,76.27
2022-10-23T14:00:13.768Z,74.97
2022-10-23T14:02:40.302Z,69.96
2022-10-23T14:05:06.994Z,71.81
2022-10-23T14:07:36.305Z,67.20
2022-10-23T14:10:04.325Z,69.58
2022-10-23T14:12:31.587Z,63.20
2022-10-23T14:14:58.135Z,68.31
2022-10-23T14:17:24.604Z,65.63
2022-10-23T14:19:51.081Z,62.34
2022-10-23T14:22:17.909Z,63.82
2022-10-23T14:24:44.418Z,64.33
2022-10-23T14:27:11.004Z,65.80
2022-10-23T14:29:37.466Z,65.59
2022-10-23T14:32:04.534Z,66.50
2022-10-23T14:34:31.003Z,65.62
2022-10-23T14:37:08.204Z,68.23
2022-10-23T14:39:35.193Z,75.14
2022-10-23T14:42:01.792Z,76.64
2022-10-23T14:44:28.649Z,78.11
2022-10-23T14:46:55.128Z,78.40
2022-10-23T14:49:21.704Z,78.37
2022-10-23T14:51:48.140Z,77.97
2022-10-23T14:54:14.718Z,77.12
2022-10-23T14:56:41.228Z,76.47
2022-10-23T14:59:08.106Z,77.23
2022-10-23T15:01:45.778Z,76.44
2022-10-23T15:04:14.755Z,75.77
2022-10-23T15:06:41.502Z,75.91
2022-10-23T15:09:07.972Z,76.16
2022-10-23T15:11:34.468Z,75.00
2022-10-23T15:14:03.772Z,75.05
2022-10-23T15:16:30.772Z,67.31
2022-10-23T15:18:57.313Z,67.45
2022-10-23T15:21:24.243Z,64.33
2022-10-23T15:23:51.047Z,66.67
2022-10-23T15:26:19.111Z,66.61
2022-10-23T15:28:45.795Z,63.19
2022-10-23T15:31:30.615Z,65.04
2022-10-23T15:33:57.621Z,63.65
2022-10-23T15:36:24.836Z,64.52
2022-10-23T15:38:52.212Z,64.98
2022-10-23T15:41:23.836Z,66.85
2022-10-23T15:46:21.758Z,67.70
2022-10-23T15:48:48.243Z,67.11
2022-10-23T15:51:14.716Z,68.23
2022-10-23T15:53:41.160Z,67.88
2022-10-23T15:56:09.820Z,66.32
2022-10-23T15:58:36.377Z,66.52
2022-10-23T16:01:04.115Z,65.90
2022-10-23T16:03:30.658Z,67.07
2022-10-23T16:05:57.177Z,65.57
2022-10-23T16:08:23.654Z,64.74
2022-10-23T16:10:50.113Z,67.30
2022-10-23T16:13:16.554Z,63.82
2022-10-23T16:15:43.051Z,63.86
2022-10-23T16:18:10.131Z,64.64
2022-10-23T16:20:39.977Z,64.99
2022-10-23T16:23:06.435Z,64.35
2022-10-23T16:25:36.131Z,64.63
2022-10-23T16:28:02.773Z,65.54
2022-10-23T16:30:29.520Z,66.72
2022-10-23T16:32:56.142Z,65.92
2022-10-23T16:35:22.946Z,66.20
2022-10-23T16:37:49.528Z,66.51
2022-10-23T16:40:16.148Z,65.45
2022-10-23T16:42:42.758Z,65.78
2022-10-23T16:45:09.966Z,65.25
2022-10-23T16:47:36.422Z,66.69
2022-10-23T16:50:03.752Z,66.10
2022-10-23T16:52:30.285Z,67.66
2022-10-23T16:54:56.917Z,66.79
2022-10-23T16:57:23.401Z,67.23
2022-10-23T16:59:49.853Z,68.25
2022-10-23T17:02:16.516Z,68.92
2022-10-23T17:04:43.195Z,68.96
2022-10-23T17:07:09.751Z,68.79
2022-10-23T17:09:36.266Z,68.69
2022-10-23T17:12:06.011Z,68.84
2022-10-23T17:14:32.524Z,68.13
2022-10-23T17:17:00.880Z,68.74
2022-10-23T17:19:45.932Z,69.57
2022-10-23T17:22:13.988Z,70.35
2022-10-23T17:24:41.753Z,71.95
2022-10-23T17:27:08.212Z,72.05
2022-10-23T17:29:37.174Z,72.89
2022-10-23T17:32:03.705Z,75.28
2022-10-23T17:34:30.204Z,75.67
2022-10-23T17:36:59.502Z,75.12
2022-10-23T17:39:28.102Z,76.36
2022-10-23T17:41:55.231Z,76.71
2022-10-23T17:44:22.041Z,77.42
2022-10-23T17:46:52.733Z,77.95
2022-10-23T17:49:19.421Z,77.36
2022-10-23T17:51:46.051Z,77.60
2022-10-23T17:54:12.998Z,78.81
2022-10-23T17:56:39.717Z,80.54
2022-10-23T17:59:09.938Z,80.03
2022-10-23T18:01:36.564Z,79.52
2022-10-23T18:04:05.824Z,81.08
2022-10-23T18:06:41.555Z,79.76
2022-10-23T18:09:08.738Z,80.03
2022-10-23T18:11:37.573Z,82.00
2022-10-23T18:14:05.493Z,81.61
2022-10-23T18:16:34.965Z,82.99
2022-10-23T18:19:02.103Z,83.62
2022-10-23T18:21:31.701Z,80.86
2022-10-23T18:23:59.655Z,81.27
2022-10-23T18:26:28.707Z,80.23
2022-10-23T18:28:57.108Z,81.01
2022-10-23T18:31:24.852Z,81.39
2022-10-23T18:34:11.363Z,81.77
2022-10-23T18:36:39.736Z,82.33
2022-10-23T18:39:09.279Z,82.00
2022-10-23T18:41:41.379Z,82.73
2022-10-23T18:44:08.465Z,81.64
2022-10-23T18:46:35.578Z,82.82
2022-10-23T18:49:02.146Z,82.55
2022-10-23T18:51:30.839Z,83.60
2022-10-23T18:54:00.587Z,84.57
2022-10-23T18:56:27.081Z,85.65
2022-10-23T18:58:56.245Z,85.98
2022-10-23T19:01:23.558Z,85.87
2022-10-23T19:03:50.326Z,87.99
2022-10-23T19:06:17.914Z,87.89
2022-10-23T19:08:45.386Z,88.63
2022-10-23T19:11:15.462Z,88.42
2022-10-23T19:13:42.226Z,91.98
2022-10-23T19:16:21.416Z,93.52
2022-10-23T19:18:59.556Z,95.40
2022-10-23T19:21:28.525Z,93.44
2022-10-23T19:23:56.763Z,94.14
2022-10-23T19:26:23.257Z,89.51
2022-10-23T19:28:49.743Z,93.11
2022-10-23T19:31:16.318Z,93.12
2022-10-23T19:33:42.938Z,92.60
2022-10-23T19:36:13.837Z,92.73
2022-10-23T19:38:41.599Z,91.64
2022-10-23T19:41:08.724Z,93.34
2022-10-23T19:43:35.465Z,93.45
2022-10-23T19:46:05.065Z,94.44
2022-10-23T19:48:34.430Z,93.74
2022-10-23T19:51:01.196Z,92.54
2022-10-23T19:53:27.896Z,92.23
2022-10-23T19:56:08.090Z,92.24
2022-10-23T19:58:37.826Z,92.24
2022-10-23T20:01:09.878Z,90.64
2022-10-23T20:03:36.454Z,90.30
2022-10-23T20:06:03.121Z,88.23
2022-10-23T20:08:32.691Z,84.89
2022-10-23T20:11:01.692Z,85.91
2022-10-23T20:13:28.204Z,84.25
2022-10-23T20:15:57.070Z,85.50
2022-10-23T20:18:23.938Z,86.01
2022-10-23T20:20:50.436Z,85.75
2022-10-23T20:23:19.257Z,86.58
2022-10-23T20:25:48.107Z,87.47
2022-10-23T20:28:15.344Z,89.09
2022-10-23T20:30:42.412Z,90.13
2022-10-23T20:33:09.277Z,90.00
2022-10-23T20:35:42.512Z,89.53
2022-10-23T20:38:09.954Z,86.40
2022-10-23T20:40:37.086Z,85.69
2022-10-23T20:43:06.576Z,87.22
2022-10-23T20:45:34.033Z,84.14
2022-10-23T20:48:00.694Z,85.86
2022-10-23T20:50:27.212Z,84.18
2022-10-23T20:52:53.724Z,85.02
2022-10-23T20:55:20.471Z,85.00
2022-10-23T20:57:47.215Z,86.47
2022-10-23T21:00:14.087Z,89.00
2022-10-23T21:02:40.676Z,90.38
2022-10-23T21:05:07.666Z,90.93
2022-10-23T21:07:34.206Z,89.88
2022-10-23T21:10:01.693Z,90.50
2022-10-23T21:12:28.171Z,90.36
2022-10-23T21:14:54.641Z,88.49
2022-10-23T21:17:21.197Z,89.39
2022-10-23T21:19:47.783Z,88.61
2022-10-23T21:22:14.251Z,88.51
2022-10-23T21:24:40.787Z,89.67
2022-10-23T21:27:07.314Z,89.43
2022-10-23T21:29:33.935Z,88.84
2022-10-23T21:32:00.896Z,90.31
2022-10-23T21:34:28.167Z,90.42
2022-10-23T21:39:42.150Z,91.70
2022-10-23T21:42:08.656Z,91.99
2022-10-23T21:44:35.287Z,90.34
2022-10-23T21:47:01.928Z,82.71
2022-10-23T21:49:28.424Z,79.36
2022-10-23T21:51:55.141Z,86.37
2022-10-23T21:54:22.142Z,87.84
2022-10-23T21:56:50.625Z,86.39
2022-10-23T21:59:19.507Z,87.93
2022-10-23T22:01:47.341Z,87.66
2022-10-23T22:04:15.389Z,86.77
2022-10-23T22:06:43.101Z,87.28
2022-10-23T22:09:15.391Z,86.36
2022-10-23T22:11:42.159Z,86.65
2022-10-23T22:14:09.064Z,85.97
2022-10-23T22:16:35.619Z,88.68
2022-10-23T22:19:02.808Z,89.64
2022-10-23T22:21:30.522Z,89.99
2022-10-23T22:23:58.267Z,85.57
2022-10-23T22:26:31.611Z,88.35
2022-10-23T22:29:00.936Z,83.39
2022-10-23T22:31:30.497Z,86.63
2022-10-23T22:33:57.725Z,87.08
2022-10-23T22:36:25.420Z,86.48
2022-10-23T22:38:52.609Z,86.33
2022-10-23T22:41:19.315Z,87.07
2022-10-23T22:43:45.799Z,89.87
2022-10-23T22:46:14.429Z,90.60
2022-10-23T22:48:40.941Z,91.42
2022-10-23T22:51:09.303Z,89.57
2022-10-23T22:53:35.862Z,86.89
2022-10-23T22:56:06.490Z,88.01
2022-10-23T22:58:33.331Z,88.08
2022-10-23T23:01:09.995Z,88.42
2022-10-23T23:03:37.324Z,87.51
2022-10-23T23:06:05.656Z,87.04
2022-10-23T23:08:33.423Z,85.66
2022-10-23T23:11:00.313Z,86.11
2022-10-23T23:13:27.354Z,86.77
2022-10-23T23:15:53.982Z,87.39
2022-10-23T23:18:20.668Z,86.06
2022-10-23T23:20:47.429Z,86.77
2022-10-23T23:23:14.488Z,86.92
2022-10-23T23:25:42.492Z,86.85
2022-10-23T23:28:08.940Z,86.25
2022-10-23T23:30:35.445Z,88.17
2022-10-23T23:33:02.006Z,88.54
2022-10-23T23:35:28.471Z,88.13
2022-10-23T23:37:55.234Z,88.37
2022-10-23T23:40:21.824Z,88.53
2022-10-23T23:42:48.490Z,89.84
2022-10-23T23:45:15.416Z,89.44
2022-10-23T23:47:42.220Z,88.89
2022-10-23T23:50:10.199Z,90.63
2022-10-23T23:52:36.886Z,90.46
2022-10-23T23:55:07.332Z,89.53
2022-10-23T23:57:33.897Z,90.36
